Time;durP1;ratioP1;P1;durP2;ratioP2;P2;SDS_P1;SDS_P2;PMS_P1;PMS_P2;Temp;Humidity;BMP_temperature;BMP_pressure;BME280_temperature;BME280_humidity;BME280_pressure;Samples;Min_cycle;Max_cycle;Signal;HPM_P1;HPM_P2
2022/03/23 00:00:58;;;;;;;;;57.75;46.75;;;;;;;;5077188;28;45542;-77
2022/03/23 00:03:23;;;;;;;;;63.75;48.50;;;;;;;;5076756;28;45316;-76
2022/03/23 00:05:48;;;;;;;;;64.50;51.00;;;;;;;;5076800;28;45595;-76
2022/03/23 00:08:13;;;;;;;;;64.50;50.75;;;;;;;;5077240;28;45302;-76
2022/03/23 00:10:39;;;;;;;;;67.50;53.00;;;;;;;;5077287;28;45401;-76
2022/03/23 00:13:04;;;;;;;;;64.50;50.50;;;;;;;;5077052;28;45546;-77
2022/03/23 00:15:30;;;;;;;;;69.50;53.50;;;;;;;;5076589;28;47149;-77
2022/03/23 00:17:55;;;;;;;;;67.00;51.75;;;;;;;;5076742;28;45517;-76
2022/03/23 00:20:20;;;;;;;;;68.25;52.50;;;;;;;;5077050;28;45469;-76
2022/03/23 00:22:45;;;;;;;;;70.25;55.25;;;;;;;;5076999;28;45309;-77
2022/03/23 00:25:11;;;;;;;;;61.00;48.00;;;;;;;;5077068;28;46193;-78
2022/03/23 00:27:37;;;;;;;;;65.25;50.50;;;;;;;;5076638;28;45355;-77
2022/03/23 00:30:02;;;;;;;;;68.75;51.25;;;;;;;;5076798;28;45458;-77
2022/03/23 00:32:28;;;;;;;;;68.00;52.50;;;;;;;;5077004;28;45454;-77
2022/03/23 00:34:53;;;;;;;;;67.67;52.00;;;;;;;;5076637;28;46931;-77
2022/03/23 00:37:19;;;;;;;;;63.75;50.50;;;;;;;;5077300;28;45376;-76
2022/03/23 00:39:45;;;;;;;;;68.50;53.50;;;;;;;;5076535;28;45240;-76
2022/03/23 00:42:10;;;;;;;;;69.75;53.25;;;;;;;;5076696;28;45508;-77
2022/03/23 00:44:35;;;;;;;;;68.25;53.00;;;;;;;;5076416;28;45407;-77
2022/03/23 00:47:00;;;;;;;;;67.75;52.75;;;;;;;;5076502;28;45347;-76
2022/03/23 00:49:26;;;;;;;;;65.25;52.50;;;;;;;;5077449;28;45563;-78
2022/03/23 00:51:53;;;;;;;;;65.00;51.00;;;;;;;;5076483;28;45411;-77
2022/03/23 00:54:19;;;;;;;;;64.00;50.75;;;;;;;;5075924;28;46953;-78
2022/03/23 00:56:44;;;;;;;;;68.00;51.25;;;;;;;;5076362;28;45240;-77
2022/03/23 00:59:09;;;;;;;;;65.50;50.50;;;;;;;;5076671;28;45467;-78
2022/03/23 01:01:34;;;;;;;;;66.25;51.75;;;;;;;;5077123;28;45400;-77
2022/03/23 01:04:00;;;;;;;;;73.75;53.00;;;;;;;;5075683;28;46452;-77
2022/03/23 01:06:25;;;;;;;;;64.75;51.00;;;;;;;;5076316;28;45483;-78
2022/03/23 01:08:50;;;;;;;;;67.75;53.50;;;;;;;;5074820;28;45492;-77
2022/03/23 01:11:15;;;;;;;;;66.00;52.00;;;;;;;;5076402;28;45426;-76
2022/03/23 01:13:41;;;;;;;;;67.50;52.25;;;;;;;;5076688;28;45572;-76
2022/03/23 01:16:06;;;;;;;;;65.50;51.00;;;;;;;;5076595;28;45445;-76
2022/03/23 01:18:32;;;;;;;;;66.25;51.75;;;;;;;;5076261;28;45345;-76
2022/03/23 01:20:57;;;;;;;;;67.75;53.75;;;;;;;;5075936;28;45554;-76
2022/03/23 01:23:22;;;;;;;;;62.50;49.50;;;;;;;;5075647;28;45497;-76
2022/03/23 01:25:47;;;;;;;;;67.33;51.67;;;;;;;;5076028;28;45637;-76
2022/03/23 01:28:13;;;;;;;;;69.50;53.00;;;;;;;;5076297;28;45854;-74
2022/03/23 01:30:38;;;;;;;;;68.25;51.75;;;;;;;;5075684;28;45482;-75
2022/03/23 01:33:03;;;;;;;;;65.33;51.00;;;;;;;;5075805;28;45374;-75
2022/03/23 01:35:28;;;;;;;;;70.75;53.75;;;;;;;;5075861;28;45441;-75
2022/03/23 01:37:54;;;;;;;;;62.75;50.00;;;;;;;;5076113;28;45371;-75
2022/03/23 01:40:19;;;;;;;;;67.50;52.00;;;;;;;;5076453;28;45621;-74
2022/03/23 01:42:44;;;;;;;;;63.25;49.50;;;;;;;;5075525;28;46731;-76
2022/03/23 01:45:10;;;;;;;;;68.33;52.67;;;;;;;;5075527;28;45362;-77
2022/03/23 01:47:36;;;;;;;;;66.00;50.33;;;;;;;;5075571;28;45506;-77
2022/03/23 01:50:03;;;;;;;;;70.67;55.67;;;;;;;;5075353;28;45492;-75
2022/03/23 01:52:31;;;;;;;;;67.00;51.25;;;;;;;;5076017;28;46018;-76
2022/03/23 01:54:57;;;;;;;;;66.75;51.25;;;;;;;;5075032;28;45321;-77
2022/03/23 01:57:22;;;;;;;;;67.00;53.00;;;;;;;;5075250;28;45323;-76
2022/03/23 01:59:48;;;;;;;;;62.00;49.00;;;;;;;;5075005;28;45328;-76
2022/03/23 02:02:13;;;;;;;;;63.00;50.00;;;;;;;;5071949;28;46290;-76
2022/03/23 02:04:39;;;;;;;;;64.75;51.75;;;;;;;;5054945;28;45396;-76
2022/03/23 02:07:05;;;;;;;;;66.33;52.00;;;;;;;;5038446;28;45380;-75
2022/03/23 02:09:31;;;;;;;;;62.75;48.25;;;;;;;;5056544;28;45363;-76
2022/03/23 02:11:56;;;;;;;;;61.75;49.00;;;;;;;;5056430;28;45462;-76
2022/03/23 02:14:22;;;;;;;;;65.75;50.50;;;;;;;;5056668;28;45595;-76
2022/03/23 02:16:48;;;;;;;;;64.50;52.00;;;;;;;;5055917;28;45265;-75
2022/03/23 02:19:14;;;;;;;;;63.25;47.25;;;;;;;;5055255;28;45349;-76
2022/03/23 02:21:43;;;;;;;;;63.75;49.75;;;;;;;;5056041;28;45486;-74
2022/03/23 02:24:09;;;;;;;;;62.25;48.75;;;;;;;;5056139;28;45649;-75
2022/03/23 02:26:34;;;;;;;;;65.75;51.75;;;;;;;;5056551;28;45721;-74
2022/03/23 02:29:01;;;;;;;;;57.00;45.50;;;;;;;;5056180;28;45596;-75
2022/03/23 02:31:26;;;;;;;;;64.25;48.00;;;;;;;;5055409;28;45485;-74
2022/03/23 02:33:52;;;;;;;;;57.50;43.50;;;;;;;;5055988;28;45467;-76
2022/03/23 02:36:17;;;;;;;;;56.50;46.00;;;;;;;;5056314;28;45553;-76
2022/03/23 02:38:43;;;;;;;;;63.50;49.75;;;;;;;;5056048;28;45327;-76
2022/03/23 02:41:09;;;;;;;;;59.50;45.75;;;;;;;;5056178;28;45343;-75
2022/03/23 02:43:34;;;;;;;;;56.75;44.50;;;;;;;;5051113;28;45430;-76
2022/03/23 02:45:59;;;;;;;;;57.75;45.50;;;;;;;;5056286;28;45518;-76
2022/03/23 02:48:24;;;;;;;;;53.00;43.00;;;;;;;;5055649;28;45312;-74
2022/03/23 02:50:49;;;;;;;;;57.50;42.25;;;;;;;;5055706;28;45977;-74
2022/03/23 03:02:00;;;;;;;;;53.25;39.25;;;;;;;;5053944;28;45766;-76
2022/03/23 03:04:25;;;;;;;;;51.00;41.00;;;;;;;;5054269;28;45406;-75
2022/03/23 03:06:53;;;;;;;;;53.00;40.25;;;;;;;;5055712;28;45489;-75
2022/03/23 03:09:21;;;;;;;;;40.00;34.00;;;;;;;;5037851;28;45467;-75
2022/03/23 03:11:47;;;;;;;;;46.00;36.50;;;;;;;;5055649;28;46918;-75
2022/03/23 03:14:12;;;;;;;;;46.50;39.25;;;;;;;;5055443;28;45422;-75
2022/03/23 03:16:38;;;;;;;;;37.75;31.25;;;;;;;;5054613;28;45394;-75
2022/03/23 03:19:10;;;;;;;;;36.00;33.00;;;;;;;;5055051;28;45581;-75
2022/03/23 03:21:36;;;;;;;;;32.50;30.75;;;;;;;;5055183;28;47390;-75
2022/03/23 03:24:01;;;;;;;;;43.75;33.75;;;;;;;;5055525;28;47461;-75
2022/03/23 03:26:26;;;;;;;;;37.75;30.50;;;;;;;;5055776;28;45407;-75
2022/03/23 03:28:52;;;;;;;;;36.00;32.25;;;;;;;;5055382;28;45244;-75
2022/03/23 03:31:17;;;;;;;;;30.00;28.50;;;;;;;;5056057;28;45958;-75
2022/03/23 03:33:43;;;;;;;;;28.50;27.50;;;;;;;;5059129;28;45356;-75
2022/03/23 03:36:08;;;;;;;;;33.00;29.75;;;;;;;;5059286;28;45421;-73
2022/03/23 03:38:34;;;;;;;;;30.25;26.50;;;;;;;;5059088;28;45369;-74
2022/03/23 03:41:01;;;;;;;;;33.25;30.75;;;;;;;;5058937;28;46220;-74
2022/03/23 03:43:27;;;;;;;;;30.50;28.00;;;;;;;;5057688;28;45418;-74
2022/03/23 03:45:52;;;;;;;;;26.00;24.75;;;;;;;;5058461;28;45368;-76
2022/03/23 03:48:18;;;;;;;;;28.75;27.50;;;;;;;;5058229;28;45528;-77
2022/03/23 03:50:44;;;;;;;;;31.25;28.75;;;;;;;;5058451;28;46117;-77
2022/03/23 03:53:09;;;;;;;;;31.25;27.50;;;;;;;;5058398;28;45363;-77
2022/03/23 03:55:35;;;;;;;;;32.75;28.75;;;;;;;;5058220;28;45442;-74
2022/03/23 03:58:00;;;;;;;;;33.25;30.75;;;;;;;;5058491;28;45329;-76
2022/03/23 04:00:26;;;;;;;;;30.50;30.50;;;;;;;;5058246;28;45982;-75
2022/03/23 04:02:51;;;;;;;;;30.25;28.00;;;;;;;;5057673;28;45339;-75
2022/03/23 04:05:16;;;;;;;;;27.75;25.25;;;;;;;;5058429;28;45415;-74
2022/03/23 04:07:41;;;;;;;;;32.25;27.75;;;;;;;;5058000;28;45455;-75
2022/03/23 04:10:07;;;;;;;;;36.75;31.00;;;;;;;;5058240;28;46238;-75
2022/03/23 04:12:32;;;;;;;;;28.25;27.25;;;;;;;;5058034;28;45413;-75
2022/03/23 04:14:58;;;;;;;;;31.50;30.25;;;;;;;;5057932;28;45404;-78
2022/03/23 04:17:23;;;;;;;;;32.00;27.25;;;;;;;;5058077;28;45522;-77
2022/03/23 04:19:48;;;;;;;;;34.50;28.75;;;;;;;;5057510;28;45499;-76
2022/03/23 04:22:13;;;;;;;;;24.50;24.50;;;;;;;;5039025;28;45987;-75
2022/03/23 04:24:39;;;;;;;;;27.25;25.75;;;;;;;;5058429;28;45439;-78
2022/03/23 04:27:05;;;;;;;;;29.25;25.50;;;;;;;;5057750;28;45286;-74
2022/03/23 04:29:30;;;;;;;;;28.25;24.50;;;;;;;;5057214;28;47028;-77
2022/03/23 04:31:55;;;;;;;;;26.75;25.50;;;;;;;;5057871;28;45472;-77
2022/03/23 04:34:21;;;;;;;;;29.00;25.25;;;;;;;;5057108;28;45327;-77
2022/03/23 04:36:46;;;;;;;;;27.75;24.75;;;;;;;;5057860;28;45254;-77
2022/03/23 04:39:11;;;;;;;;;26.25;23.75;;;;;;;;5057455;28;45336;-78
2022/03/23 04:41:36;;;;;;;;;32.50;26.50;;;;;;;;5057034;28;45482;-77
2022/03/23 04:44:02;;;;;;;;;33.50;30.00;;;;;;;;5057255;28;45468;-75
2022/03/23 04:46:27;;;;;;;;;29.25;26.25;;;;;;;;5057137;28;45339;-76
2022/03/23 04:48:52;;;;;;;;;29.25;28.00;;;;;;;;5057193;28;46060;-77
2022/03/23 04:51:17;;;;;;;;;27.00;21.00;;;;;;;;5057352;28;45382;-77
2022/03/23 04:53:43;;;;;;;;;27.75;24.75;;;;;;;;5057519;28;45473;-77
2022/03/23 04:56:08;;;;;;;;;23.75;22.75;;;;;;;;5057905;28;45306;-77
2022/03/23 04:58:34;;;;;;;;;25.00;22.75;;;;;;;;5056460;28;45601;-76
2022/03/23 05:01:00;;;;;;;;;27.50;24.50;;;;;;;;5057093;28;45467;-76
2022/03/23 05:03:25;;;;;;;;;36.00;27.75;;;;;;;;5057001;28;45308;-76
2022/03/23 05:05:50;;;;;;;;;27.75;26.75;;;;;;;;5057211;28;45253;-77
2022/03/23 05:08:16;;;;;;;;;26.50;26.50;;;;;;;;5059037;28;46773;-76
2022/03/23 05:10:41;;;;;;;;;27.50;20.75;;;;;;;;5055952;28;45539;-77
2022/03/23 05:13:06;;;;;;;;;34.50;29.25;;;;;;;;5056687;28;45406;-77
2022/03/23 05:15:31;;;;;;;;;28.00;25.50;;;;;;;;5056379;28;45372;-77
2022/03/23 05:18:05;;;;;;;;;30.50;27.50;;;;;;;;5056361;28;47444;-78
2022/03/23 05:20:30;;;;;;;;;33.25;30.00;;;;;;;;5038658;28;46076;-75
2022/03/23 05:22:56;;;;;;;;;31.25;28.50;;;;;;;;5057082;28;45320;-77
2022/03/23 05:25:21;;;;;;;;;30.00;26.25;;;;;;;;5055887;28;45230;-77
2022/03/23 05:27:47;;;;;;;;;34.00;29.25;;;;;;;;5056175;28;45412;-77
2022/03/23 05:30:12;;;;;;;;;31.00;29.50;;;;;;;;5056044;28;45352;-77
2022/03/23 05:32:39;;;;;;;;;26.50;24.75;;;;;;;;5056390;28;45626;-77
2022/03/23 05:35:04;;;;;;;;;35.25;29.75;;;;;;;;5040652;28;45347;-77
2022/03/23 05:37:30;;;;;;;;;30.00;25.50;;;;;;;;5055894;28;46495;-77
2022/03/23 05:39:55;;;;;;;;;33.00;28.25;;;;;;;;5056125;28;45378;-75
2022/03/23 05:42:20;;;;;;;;;33.25;28.00;;;;;;;;5055858;28;45308;-78
2022/03/23 05:44:45;;;;;;;;;26.75;25.25;;;;;;;;5055576;28;45534;-76
2022/03/23 05:47:11;;;;;;;;;33.00;30.75;;;;;;;;5055965;28;46994;-78
2022/03/23 05:49:36;;;;;;;;;36.75;28.50;;;;;;;;5055376;28;45355;-79
2022/03/23 05:52:01;;;;;;;;;31.50;30.25;;;;;;;;5056189;28;45392;-77
2022/03/23 05:54:27;;;;;;;;;32.00;30.50;;;;;;;;5054983;28;45352;-76
2022/03/23 05:56:52;;;;;;;;;41.50;35.25;;;;;;;;5055856;28;46447;-76
2022/03/23 05:59:18;;;;;;;;;35.50;30.00;;;;;;;;5055959;28;45492;-75
2022/03/23 06:01:44;;;;;;;;;47.25;37.00;;;;;;;;5054403;28;45310;-77
2022/03/23 06:04:09;;;;;;;;;36.75;30.00;;;;;;;;5055132;28;45493;-75
2022/03/23 06:06:34;;;;;;;;;38.50;33.75;;;;;;;;5055340;28;46888;-77
2022/03/23 06:09:00;;;;;;;;;37.00;30.75;;;;;;;;5036598;28;45380;-76
2022/03/23 06:11:25;;;;;;;;;38.25;33.25;;;;;;;;5055486;28;45404;-76
2022/03/23 06:13:50;;;;;;;;;37.50;33.75;;;;;;;;5055571;28;45397;-76
2022/03/23 06:16:16;;;;;;;;;37.50;32.00;;;;;;;;5054180;28;46380;-76
2022/03/23 06:18:41;;;;;;;;;40.00;33.50;;;;;;;;5055033;28;45796;-74
2022/03/23 06:21:06;;;;;;;;;34.75;33.00;;;;;;;;5055096;28;45479;-76
2022/03/23 06:23:32;;;;;;;;;47.00;37.00;;;;;;;;5054862;28;45465;-78
2022/03/23 06:25:57;;;;;;;;;34.25;32.00;;;;;;;;5054599;28;45659;-78
2022/03/23 06:28:23;;;;;;;;;45.25;35.00;;;;;;;;5053674;28;45266;-78
2022/03/23 06:30:49;;;;;;;;;39.50;33.75;;;;;;;;5054663;28;45449;-78
2022/03/23 06:33:15;;;;;;;;;38.25;33.00;;;;;;;;5054338;28;45497;-78
2022/03/23 06:35:41;;;;;;;;;34.75;28.50;;;;;;;;5055403;28;46183;-85
2022/03/23 06:38:08;;;;;;;;;33.50;30.00;;;;;;;;5054736;28;45514;-79
2022/03/23 06:40:34;;;;;;;;;33.50;29.75;;;;;;;;5049329;28;45411;-77
2022/03/23 06:42:59;;;;;;;;;35.25;32.25;;;;;;;;5054183;28;45675;-73
2022/03/23 06:45:25;;;;;;;;;43.25;35.00;;;;;;;;5053737;28;46231;-76
2022/03/23 06:47:50;;;;;;;;;44.50;36.75;;;;;;;;5054083;28;45578;-77
2022/03/23 06:50:15;;;;;;;;;50.75;41.75;;;;;;;;5054305;28;45530;-77
2022/03/23 06:52:40;;;;;;;;;42.00;35.75;;;;;;;;5052976;28;45303;-75
2022/03/23 06:55:06;;;;;;;;;42.75;34.75;;;;;;;;5053558;28;47012;-75
2022/03/23 06:57:31;;;;;;;;;40.75;32.50;;;;;;;;5054500;28;45273;-78
2022/03/23 06:59:57;;;;;;;;;38.00;31.50;;;;;;;;5054302;28;45790;-73
2022/03/23 07:02:22;;;;;;;;;34.75;31.50;;;;;;;;5053976;28;45459;-75
2022/03/23 07:04:47;;;;;;;;;33.50;31.50;;;;;;;;5053794;28;46055;-74
2022/03/23 07:07:12;;;;;;;;;34.25;29.25;;;;;;;;5053576;28;45388;-74
2022/03/23 07:09:41;;;;;;;;;34.50;30.75;;;;;;;;5035006;28;45308;-73
2022/03/23 07:12:10;;;;;;;;;39.25;32.25;;;;;;;;5053869;28;45379;-74
2022/03/23 07:14:36;;;;;;;;;34.00;28.75;;;;;;;;5053632;28;45311;-74
2022/03/23 07:17:02;;;;;;;;;35.50;30.50;;;;;;;;5054271;28;45595;-79
2022/03/23 07:19:28;;;;;;;;;35.50;30.75;;;;;;;;5054282;28;45297;-79
2022/03/23 07:21:53;;;;;;;;;36.50;31.00;;;;;;;;5053448;28;45718;-78
2022/03/23 07:24:19;;;;;;;;;39.75;33.00;;;;;;;;5053108;28;46120;-78
2022/03/23 07:26:44;;;;;;;;;39.00;32.75;;;;;;;;5053666;28;45452;-79
2022/03/23 07:29:10;;;;;;;;;38.75;33.50;;;;;;;;5035676;28;45404;-79
2022/03/23 07:31:35;;;;;;;;;32.50;30.00;;;;;;;;5053250;28;45305;-78
2022/03/23 07:34:02;;;;;;;;;38.50;32.00;;;;;;;;5053033;28;46172;-79
2022/03/23 07:36:27;;;;;;;;;32.75;29.25;;;;;;;;5052227;28;45525;-77
2022/03/23 07:38:53;;;;;;;;;36.00;31.75;;;;;;;;5052872;28;45831;-78
2022/03/23 07:41:18;;;;;;;;;34.50;32.00;;;;;;;;5053273;28;45537;-79
2022/03/23 07:43:43;;;;;;;;;39.50;33.75;;;;;;;;5051925;28;47231;-77
2022/03/23 07:46:08;;;;;;;;;35.75;31.75;;;;;;;;5053107;28;45503;-79
2022/03/23 07:48:34;;;;;;;;;35.75;32.25;;;;;;;;5053309;28;45462;-78
2022/03/23 07:50:59;;;;;;;;;38.50;33.00;;;;;;;;5052651;28;45409;-78
2022/03/23 07:53:25;;;;;;;;;43.00;33.50;;;;;;;;5052902;28;45622;-77
2022/03/23 07:55:50;;;;;;;;;50.25;40.25;;;;;;;;5053466;28;45379;-78
2022/03/23 07:58:15;;;;;;;;;44.75;35.75;;;;;;;;5052396;28;45490;-78
2022/03/23 08:00:43;;;;;;;;;34.75;31.75;;;;;;;;5030582;28;45398;-78
2022/03/23 08:03:09;;;;;;;;;34.75;32.75;;;;;;;;5053076;28;45434;-77
2022/03/23 08:05:37;;;;;;;;;41.75;34.75;;;;;;;;5053532;28;45255;-77
2022/03/23 08:08:02;;;;;;;;;49.00;39.75;;;;;;;;5053008;28;45294;-78
2022/03/23 08:10:27;;;;;;;;;41.75;33.25;;;;;;;;5052145;28;45426;-77
2022/03/23 08:12:53;;;;;;;;;40.75;32.75;;;;;;;;5052906;28;46293;-79
2022/03/23 08:15:18;;;;;;;;;35.75;30.75;;;;;;;;5052699;28;45565;-77
2022/03/23 08:17:43;;;;;;;;;38.75;33.00;;;;;;;;5054846;28;45410;-79
2022/03/23 08:22:55;;;;;;;;;32.50;28.75;;;;;;;;5055532;28;45806;-79
2022/03/23 08:25:20;;;;;;;;;35.25;31.25;;;;;;;;5055535;28;45354;-78
2022/03/23 08:27:46;;;;;;;;;24.25;24.25;;;;;;;;5056622;28;45432;-77
2022/03/23 08:30:11;;;;;;;;;34.00;31.50;;;;;;;;5056212;28;45463;-77
2022/03/23 08:32:36;;;;;;;;;33.25;31.75;;;;;;;;5056279;28;46197;-78
2022/03/23 08:35:02;;;;;;;;;35.00;30.75;;;;;;;;5056535;28;45361;-77
2022/03/23 08:37:28;;;;;;;;;31.25;29.50;;;;;;;;5055172;28;45255;-76
2022/03/23 08:39:53;;;;;;;;;31.00;29.25;;;;;;;;5055717;28;45419;-78
2022/03/23 08:42:18;;;;;;;;;32.50;29.25;;;;;;;;5055897;28;46124;-78
2022/03/23 08:44:45;;;;;;;;;35.75;30.00;;;;;;;;5056005;28;45478;-78
2022/03/23 08:47:10;;;;;;;;;31.75;30.00;;;;;;;;5057624;28;45398;-78
2022/03/23 08:49:36;;;;;;;;;35.75;32.25;;;;;;;;5055019;28;45490;-78
2022/03/23 08:52:01;;;;;;;;;29.00;27.75;;;;;;;;5055013;28;45570;-77
2022/03/23 08:54:27;;;;;;;;;33.00;28.50;;;;;;;;5055729;28;45519;-78
2022/03/23 08:56:53;;;;;;;;;30.25;27.00;;;;;;;;5055596;28;47456;-77
2022/03/23 08:59:18;;;;;;;;;30.25;24.50;;;;;;;;5056119;28;45452;-76
2022/03/23 09:01:43;;;;;;;;;30.75;26.00;;;;;;;;5054922;28;45735;-75
2022/03/23 09:04:10;;;;;;;;;22.75;22.25;;;;;;;;5056152;28;45424;-78
2022/03/23 09:06:35;;;;;;;;;29.25;23.25;;;;;;;;5055469;28;45873;-78
2022/03/23 09:09:00;;;;;;;;;27.75;24.50;;;;;;;;5055938;28;45574;-77
2022/03/23 09:11:26;;;;;;;;;29.75;27.50;;;;;;;;5055154;28;47019;-76
2022/03/23 09:13:51;;;;;;;;;34.25;29.25;;;;;;;;5055995;28;45291;-77
2022/03/23 09:16:16;;;;;;;;;25.25;22.75;;;;;;;;5055040;28;45474;-78
2022/03/23 09:18:41;;;;;;;;;24.25;22.50;;;;;;;;5055425;28;45426;-77
2022/03/23 09:21:07;;;;;;;;;35.25;29.00;;;;;;;;5057362;28;45631;-77
2022/03/23 09:23:32;;;;;;;;;30.50;28.25;;;;;;;;5055263;28;45390;-79
2022/03/23 09:25:57;;;;;;;;;34.00;30.75;;;;;;;;5055514;28;45300;-78
2022/03/23 09:28:23;;;;;;;;;30.25;26.00;;;;;;;;5053668;28;45515;-78
2022/03/23 09:30:48;;;;;;;;;33.25;28.50;;;;;;;;5036847;28;47440;-78
2022/03/23 09:33:13;;;;;;;;;26.25;23.50;;;;;;;;5054818;28;45330;-78
2022/03/23 09:35:38;;;;;;;;;32.25;29.75;;;;;;;;5055272;28;45296;-78
2022/03/23 09:38:04;;;;;;;;;26.25;22.50;;;;;;;;5055678;28;45532;-78
2022/03/23 09:40:31;;;;;;;;;27.25;23.50;;;;;;;;5054647;28;46462;-78
2022/03/23 09:43:00;;;;;;;;;28.75;23.00;;;;;;;;5054904;28;45287;-78
2022/03/23 09:48:00;;;;;;;;;25.25;21.00;;;;;;;;5054663;28;45267;-78
2022/03/23 09:50:27;;;;;;;;;21.75;21.75;;;;;;;;5054647;28;46056;-79
2022/03/23 09:52:52;;;;;;;;;21.25;18.00;;;;;;;;5054347;28;45487;-78
2022/03/23 09:55:18;;;;;;;;;17.00;16.00;;;;;;;;5063127;28;45214;-77
2022/03/23 09:57:43;;;;;;;;;23.25;23.25;;;;;;;;5039194;28;45592;-77
2022/03/23 10:00:12;;;;;;;;;31.50;27.25;;;;;;;;5055170;28;45415;-78
2022/03/23 10:02:40;;;;;;;;;25.25;23.50;;;;;;;;5055096;28;45387;-78
2022/03/23 10:05:34;;;;;;;;;18.25;16.50;;;;;;;;5055471;28;45431;-76
2022/03/23 10:08:17;;;;;;;;;22.50;20.00;;;;;;;;5046866;28;45412;-76
2022/03/23 10:10:48;;;;;;;;;26.25;25.25;;;;;;;;5050768;28;45533;-78
2022/03/23 10:13:42;;;;;;;;;18.50;17.00;;;;;;;;5055961;28;45488;-78
2022/03/23 10:16:26;;;;;;;;;21.50;21.25;;;;;;;;5054215;28;45367;-78
2022/03/23 10:18:52;;;;;;;;;57.25;44.50;;;;;;;;5054160;28;45561;-77
2022/03/23 10:21:18;;;;;;;;;24.75;23.00;;;;;;;;5054443;28;46349;-78
2022/03/23 10:23:50;;;;;;;;;57.25;47.00;;;;;;;;5054132;28;45459;-77
2022/03/23 10:26:15;;;;;;;;;28.75;25.25;;;;;;;;5055161;28;45358;-78
2022/03/23 10:28:40;;;;;;;;;19.50;19.50;;;;;;;;5053847;28;45552;-77
2022/03/23 10:31:19;;;;;;;;;23.25;21.25;;;;;;;;5054467;28;47218;-75
2022/03/23 10:33:44;;;;;;;;;28.50;25.00;;;;;;;;5054097;28;45565;-78
2022/03/23 10:36:11;;;;;;;;;20.75;19.00;;;;;;;;5054029;28;45427;-78
2022/03/23 10:38:37;;;;;;;;;20.50;19.75;;;;;;;;5053870;28;45528;-78
2022/03/23 10:41:08;;;;;;;;;22.25;22.25;;;;;;;;5052894;28;48670;-78
2022/03/23 10:43:38;;;;;;;;;29.75;27.50;;;;;;;;5053200;28;45220;-78
2022/03/23 10:46:08;;;;;;;;;25.25;25.00;;;;;;;;5055824;28;45423;-78
2022/03/23 10:48:33;;;;;;;;;26.00;22.75;;;;;;;;5054294;28;45473;-77
2022/03/23 10:50:59;;;;;;;;;31.25;30.50;;;;;;;;5054377;28;45390;-78
2022/03/23 10:53:32;;;;;;;;;20.00;19.00;;;;;;;;5054437;28;45469;-78
2022/03/23 10:55:58;;;;;;;;;16.75;15.50;;;;;;;;5053763;28;45402;-78
2022/03/23 10:58:25;;;;;;;;;29.50;28.25;;;;;;;;5052777;28;45421;-78
2022/03/23 11:00:52;;;;;;;;;40.50;36.00;;;;;;;;5053400;28;46236;-78
2022/03/23 11:03:17;;;;;;;;;24.25;21.75;;;;;;;;5064912;28;45563;-77
2022/03/23 11:05:45;;;;;;;;;35.25;31.50;;;;;;;;5073006;28;45441;-77
2022/03/23 11:08:11;;;;;;;;;24.00;21.50;;;;;;;;5072820;28;45370;-78
2022/03/23 11:16:38;;;;;;;;;44.50;35.75;;;;;;;;5073060;27;45398;-79
2022/03/23 11:19:10;;;;;;;;;19.75;16.75;;;;;;;;5066062;28;45311;-78
2022/03/23 11:21:54;;;;;;;;;24.00;22.75;;;;;;;;5071855;27;46954;-78
2022/03/23 11:24:19;;;;;;;;;20.50;19.00;;;;;;;;5072144;28;45446;-77
2022/03/23 11:26:44;;;;;;;;;19.75;18.25;;;;;;;;5072622;27;45401;-77
2022/03/23 11:29:10;;;;;;;;;21.25;19.50;;;;;;;;5073116;28;45262;-78
2022/03/23 11:31:36;;;;;;;;;21.75;19.50;;;;;;;;5072816;28;47249;-77
2022/03/23 11:34:03;;;;;;;;;21.00;18.00;;;;;;;;5073000;28;45284;-78
2022/03/23 11:36:30;;;;;;;;;27.75;24.25;;;;;;;;5075442;27;45388;-78
2022/03/23 11:38:59;;;;;;;;;21.25;17.25;;;;;;;;5074125;27;45530;-79
2022/03/23 11:41:24;;;;;;;;;25.25;21.75;;;;;;;;5074262;28;47211;-79
2022/03/23 11:43:49;;;;;;;;;21.25;17.75;;;;;;;;5073440;28;45434;-78
2022/03/23 11:46:19;;;;;;;;;21.50;17.75;;;;;;;;5072336;28;45487;-78
2022/03/23 11:48:47;;;;;;;;;24.25;20.75;;;;;;;;5071603;28;45464;-78
2022/03/23 11:51:32;;;;;;;;;24.00;21.25;;;;;;;;5071456;27;46190;-79
2022/03/23 11:54:09;;;;;;;;;24.75;21.25;;;;;;;;5075031;27;45402;-78
2022/03/23 11:56:38;;;;;;;;;21.25;20.50;;;;;;;;5075595;27;45340;-78
2022/03/23 11:59:22;;;;;;;;;25.25;24.25;;;;;;;;5075201;27;45542;-77
2022/03/23 12:01:48;;;;;;;;;19.50;19.50;;;;;;;;5072953;27;46239;-78
2022/03/23 12:04:17;;;;;;;;;24.25;20.50;;;;;;;;5075919;28;45297;-78
2022/03/23 12:06:43;;;;;;;;;21.00;19.00;;;;;;;;5075192;27;45336;-78
2022/03/23 12:09:08;;;;;;;;;21.75;20.75;;;;;;;;5075148;28;45328;-79
2022/03/23 12:11:42;;;;;;;;;19.25;17.75;;;;;;;;5075129;27;45477;-78
2022/03/23 12:14:17;;;;;;;;;18.25;17.00;;;;;;;;5058734;28;45469;-79
2022/03/23 12:16:45;;;;;;;;;21.50;18.00;;;;;;;;5072243;27;45284;-77
2022/03/23 12:19:11;;;;;;;;;26.25;21.75;;;;;;;;5068314;27;45518;-77
2022/03/23 12:22:02;;;;;;;;;20.50;20.25;;;;;;;;5070603;28;46223;-78
2022/03/23 12:24:32;;;;;;;;;28.25;23.75;;;;;;;;4987185;28;45452;-76
2022/03/23 12:26:59;;;;;;;;;22.25;20.75;;;;;;;;4988564;28;45358;-77
2022/03/23 12:29:29;;;;;;;;;20.50;19.50;;;;;;;;4990312;28;45358;-78
2022/03/23 12:32:08;;;;;;;;;21.75;19.75;;;;;;;;4991123;28;46188;-79
2022/03/23 12:34:34;;;;;;;;;19.75;19.50;;;;;;;;4991415;28;45338;-77
2022/03/23 12:37:06;;;;;;;;;18.25;18.25;;;;;;;;4992518;28;45570;-77
2022/03/23 12:39:34;;;;;;;;;20.75;19.75;;;;;;;;4991288;28;45385;-78
2022/03/23 12:42:11;;;;;;;;;17.00;16.25;;;;;;;;4991375;28;45957;-78
2022/03/23 12:44:36;;;;;;;;;19.50;19.50;;;;;;;;4988030;28;45420;-77
2022/03/23 12:47:06;;;;;;;;;21.50;19.00;;;;;;;;4991056;28;45317;-78
2022/03/23 12:58:04;;;;;;;;;21.75;21.75;;;;;;;;4991975;28;45448;-78
2022/03/23 13:00:35;;;;;;;;;19.50;19.00;;;;;;;;4998977;28;45432;-77
2022/03/23 13:03:06;;;;;;;;;18.75;18.25;;;;;;;;5073150;28;46059;-77
2022/03/23 13:05:32;;;;;;;;;25.50;25.50;;;;;;;;5071168;28;45320;-78
2022/03/23 13:07:57;;;;;;;;;24.00;22.50;;;;;;;;5073754;27;45569;-77
2022/03/23 13:10:24;;;;;;;;;22.25;21.25;;;;;;;;5074423;28;45500;-77
2022/03/23 13:12:50;;;;;;;;;26.00;24.25;;;;;;;;5067426;27;46307;-78
2022/03/23 13:15:16;;;;;;;;;19.75;18.00;;;;;;;;5073943;28;45499;-77
2022/03/23 13:17:42;;;;;;;;;19.00;17.25;;;;;;;;5074839;28;45353;-78
2022/03/23 13:20:09;;;;;;;;;25.00;21.75;;;;;;;;5073934;27;45474;-77
2022/03/23 13:22:38;;;;;;;;;19.00;17.75;;;;;;;;5073499;28;45572;-76
2022/03/23 13:25:04;;;;;;;;;17.25;15.50;;;;;;;;5074307;28;45293;-77
2022/03/23 13:27:29;;;;;;;;;17.00;15.75;;;;;;;;5074064;27;45495;-77
2022/03/23 13:30:08;;;;;;;;;24.25;23.75;;;;;;;;5074441;28;45306;-78
2022/03/23 13:32:34;;;;;;;;;18.75;18.75;;;;;;;;5074102;28;46841;-78
2022/03/23 13:34:59;;;;;;;;;22.00;22.00;;;;;;;;5073940;28;45342;-78
2022/03/23 13:37:25;;;;;;;;;22.50;19.00;;;;;;;;5075043;28;45406;-78
2022/03/23 13:39:50;;;;;;;;;23.00;19.50;;;;;;;;5073899;28;45501;-77
2022/03/23 13:45:06;;;;;;;;;16.00;13.75;;;;;;;;5073904;28;45497;-82
2022/03/23 13:47:40;;;;;;;;;23.00;20.00;;;;;;;;5074365;28;45486;-82
2022/03/23 13:50:07;;;;;;;;;25.00;21.75;;;;;;;;5073298;27;45371;-82
2022/03/23 13:52:32;;;;;;;;;21.50;21.50;;;;;;;;5074196;28;46266;-84
2022/03/23 13:54:58;;;;;;;;;27.25;23.75;;;;;;;;5074266;28;45459;-83
2022/03/23 13:57:25;;;;;;;;;24.50;21.50;;;;;;;;5074475;27;45451;-84
2022/03/23 13:59:51;;;;;;;;;21.00;17.50;;;;;;;;5076606;28;45296;-84
2022/03/23 14:02:17;;;;;;;;;22.25;21.00;;;;;;;;5073328;28;47150;-85
2022/03/23 14:04:42;;;;;;;;;21.50;18.50;;;;;;;;5074190;27;45268;-85
2022/03/23 14:07:08;;;;;;;;;23.00;22.00;;;;;;;;5073970;28;45352;-82
2022/03/23 14:09:37;;;;;;;;;20.50;20.25;;;;;;;;5073578;28;45338;-81
2022/03/23 14:12:05;;;;;;;;;23.25;20.50;;;;;;;;5074111;28;45557;-81
2022/03/23 14:14:49;;;;;;;;;22.50;21.50;;;;;;;;5072296;28;45477;-81
2022/03/23 14:17:23;;;;;;;;;24.50;24.50;;;;;;;;5057879;28;45461;-81
2022/03/23 14:19:49;;;;;;;;;27.75;23.50;;;;;;;;5073302;27;45289;-81
2022/03/23 14:22:16;;;;;;;;;23.00;20.25;;;;;;;;5072840;28;46253;-80
2022/03/23 14:24:42;;;;;;;;;25.00;20.75;;;;;;;;5072835;28;45315;-80
2022/03/23 14:27:16;;;;;;;;;16.50;16.50;;;;;;;;5074745;28;45262;-81
2022/03/23 14:29:42;;;;;;;;;25.50;21.00;;;;;;;;5073203;28;45613;-81
2022/03/23 14:32:11;;;;;;;;;21.00;20.25;;;;;;;;5057343;28;45306;-80
2022/03/23 14:34:37;;;;;;;;;22.25;21.25;;;;;;;;5069442;28;45481;-80
2022/03/23 14:37:09;;;;;;;;;27.00;23.25;;;;;;;;5072770;28;45302;-80
2022/03/23 14:39:52;;;;;;;;;20.75;19.75;;;;;;;;5072177;28;45354;-80
2022/03/23 14:42:18;;;;;;;;;27.75;24.75;;;;;;;;5072585;28;45513;-80
2022/03/23 14:44:46;;;;;;;;;20.25;20.25;;;;;;;;5072501;28;45331;-81